Cape Girardeau, MO

1:53 AM CST on February 13, 2016 (GMT -0600)
Timber Creek | | Change Station
CLOSE
Current Station
Personal Weather Station
Location: Cape Girardeau, MO
Elevation: 440 ft
Nearby Weather Stations

Elev 440 ft 37.34 °N, 89.54 °W | Updated 2 minutes ago

Clear
Clear
22.5 °F
Feels Like 22 °F
N
2.0
Wind Variable Wind from North
Gusts 6.0 mph

Today
High -- | Low -- °F
--% Chance of Precip.
Yesterday
High -- | Low -- °F
Precip. -- in
Pressure 30.53 in
Visibility 10.0 miles
Clouds Clear
Windchill 22 °F
Dew Point 10 °F
Humidity 57%
Rainfall 0.00 in
Snow Depth Not available.
6:49 AM 5:35 PM
Waxing Crescent, 28% visible
METAR KCGI 130653Z AUTO 34009KT 10SM CLR M05/M13 A3052 RMK AO2 SLP337 T10501133
Pressure 30.53 in
Visibility 10.0 miles
Clouds Clear
Windchill 22 °F
Dew Point 10 °F
Humidity 57%
Rainfall 0.00 in
Snow Depth Not available.
6:49 AM 5:35 PM
Waxing Crescent, 28% visible
METAR KCGI 130653Z AUTO 34009KT 10SM CLR M05/M13 A3052 RMK AO2 SLP337 T10501133

10-Day Weather Forecast

Almanac

Astronomy

Feb. 13, 2016 Rise Set
Actual Time
Civil Twilight
Nautical Twilight
Astronomical Twilight
Moon
Length of Visible Light
Length of Day
Tomorrow will be .
, % of the Moon is Illuminated

Today's Extremes

State Highs State Lows

Community

WunderPhotos

Upload Photos

1,892,526 photos uploaded!

WunderBlog® & News

Nearby

Air Quality

  Air Quality AQ Index Pollutant
Not available.

Snow Depth

Station Depth Elevation

Earthquake Activity

City Distance Mag. Time & Date
Minimum magnitude displayed is 2.5.

Coastal Water Temperatures

Place Temperature

Stations

Nearby Weather Stations

Station Location Temp. Windchill Dew Point Humidity Wind Precip. Elev Updated Type
                   

Watches & Warnings

There are currently no watches in effect.